createdAt,value
2023-04-10T00:00:29.284Z,16.55
2023-04-10T00:02:56.691Z,17.58
2023-04-10T00:05:23.459Z,18.85
2023-04-10T00:07:49.920Z,17.50
2023-04-10T00:10:16.890Z,17.33
2023-04-10T00:15:10.171Z,18.65
2023-04-10T00:17:36.624Z,19.27
2023-04-10T00:20:05.073Z,20.10
2023-04-10T00:22:31.510Z,20.42
2023-04-10T00:24:58.522Z,18.83
2023-04-10T00:29:51.329Z,20.77
2023-04-10T00:32:17.775Z,20.38
2023-04-10T00:34:44.310Z,20.90
2023-04-10T00:37:10.764Z,19.60
2023-04-10T00:39:37.247Z,20.23
2023-04-10T00:42:04.139Z,18.33
2023-04-10T00:44:30.922Z,18.25
2023-04-10T00:46:57.437Z,18.83
2023-04-10T00:49:24.090Z,18.65
2023-04-10T00:51:50.629Z,18.17
2023-04-10T00:54:17.108Z,18.77
2023-04-10T00:56:45.408Z,19.48
2023-04-10T00:59:11.942Z,19.25
2023-04-10T01:01:38.642Z,19.08
2023-04-10T01:04:06.359Z,18.77
2023-04-10T01:06:58.224Z,19.85
2023-04-10T01:10:05.002Z,19.33
2023-04-10T01:12:46.648Z,18.98
2023-04-10T01:15:17.019Z,19.92
2023-04-10T01:18:04.315Z,20.58
2023-04-10T01:20:34.736Z,20.98
2023-04-10T01:23:43.326Z,19.30
2023-04-10T01:26:17.404Z,18.83
2023-04-10T01:29:06.598Z,18.60
2023-04-10T01:31:57.124Z,18.05
2023-04-10T01:34:36.075Z,19.30
2023-04-10T01:37:08.554Z,19.25
2023-04-10T01:39:39.559Z,19.00
2023-04-10T01:42:08.914Z,19.50
2023-04-10T01:44:41.739Z,19.60
2023-04-10T01:47:08.280Z,20.50
2023-04-10T01:49:37.398Z,20.08
2023-04-10T01:52:06.640Z,19.88
2023-04-10T01:54:34.065Z,20.83
2023-04-10T01:57:02.272Z,21.38
2023-04-10T01:59:28.881Z,21.10
2023-04-10T02:01:59.774Z,21.88
2023-04-10T02:04:26.751Z,21.80
2023-04-10T02:09:59.034Z,24.13
2023-04-10T02:12:31.896Z,23.15
2023-04-10T02:15:01.969Z,21.77
2023-04-10T02:17:32.694Z,21.60
2023-04-10T02:19:59.833Z,22.70
2023-04-10T02:24:54.273Z,21.73
2023-04-10T02:27:31.040Z,21.63
2023-04-10T02:32:24.267Z,20.13
2023-04-10T02:34:50.773Z,21.95
2023-04-10T02:37:17.329Z,21.05
2023-04-10T02:39:43.752Z,22.45
2023-04-10T02:42:10.405Z,23.52
2023-04-10T02:44:36.842Z,22.13
2023-04-10T02:47:03.360Z,21.80
2023-04-10T02:49:30.083Z,22.27
2023-04-10T02:51:56.985Z,21.77
2023-04-10T02:54:23.418Z,21.35
2023-04-10T02:56:49.896Z,21.00
2023-04-10T02:59:16.350Z,17.58
2023-04-10T03:01:42.799Z,21.77
2023-04-10T03:04:09.476Z,21.90
2023-04-10T03:06:36.052Z,22.90
2023-04-10T03:09:02.508Z,21.90
2023-04-10T03:11:29.217Z,23.20
2023-04-10T03:13:56.126Z,22.52
2023-04-10T03:18:49.242Z,21.95
2023-04-10T03:21:16.101Z,22.75
2023-04-10T03:23:42.555Z,22.52
2023-04-10T03:26:09.021Z,23.25
2023-04-10T03:28:36.658Z,22.05
2023-04-10T03:31:04.121Z,23.55
2023-04-10T03:33:30.753Z,23.25
2023-04-10T03:35:58.200Z,21.35
2023-04-10T03:38:24.689Z,23.35
2023-04-10T03:40:51.168Z,23.23
2023-04-10T03:43:17.596Z,24.55
2023-04-10T03:45:44.127Z,23.77
2023-04-10T03:48:10.867Z,23.20
2023-04-10T03:50:37.591Z,24.63
2023-04-10T03:53:04.105Z,24.60
2023-04-10T03:55:30.958Z,24.05
2023-04-10T03:57:57.420Z,23.50
2023-04-10T04:00:24.996Z,22.08
2023-04-10T04:02:52.032Z,20.77
2023-04-10T04:05:18.767Z,22.75
2023-04-10T04:07:45.465Z,22.73
2023-04-10T04:10:12.390Z,22.75
2023-04-10T04:12:38.790Z,24.08
2023-04-10T04:15:05.622Z,24.10
2023-04-10T04:17:32.082Z,23.20
2023-04-10T04:19:58.578Z,23.45
2023-04-10T04:22:25.052Z,24.92
2023-04-10T04:24:52.605Z,24.80
2023-04-10T04:27:21.709Z,25.13
2023-04-10T04:29:48.362Z,24.35
2023-04-10T04:32:15.159Z,22.27
2023-04-10T04:34:41.837Z,23.27
2023-04-10T04:37:08.342Z,23.70
2023-04-10T04:39:34.890Z,23.58
2023-04-10T04:42:01.485Z,24.33
2023-04-10T04:44:27.913Z,24.45
2023-04-10T04:46:54.351Z,23.02
2023-04-10T04:49:20.747Z,24.48
2023-04-10T04:51:47.160Z,23.45
2023-04-10T04:54:13.537Z,23.77
2023-04-10T04:56:40.005Z,24.40
2023-04-10T04:59:06.417Z,23.27
2023-04-10T05:01:33.000Z,23.10
2023-04-10T05:03:59.516Z,24.75
2023-04-10T05:06:26.522Z,23.58
2023-04-10T05:11:20.621Z,23.00
2023-04-10T05:13:47.027Z,25.45
2023-04-10T05:16:13.551Z,24.35
2023-04-10T05:18:41.756Z,24.45
2023-04-10T05:21:08.230Z,24.88
2023-04-10T05:23:34.679Z,25.80
2023-04-10T05:26:01.140Z,26.58
2023-04-10T05:28:27.576Z,25.63
2023-04-10T05:30:54.138Z,25.77
2023-04-10T05:33:20.748Z,24.83
2023-04-10T05:35:47.381Z,26.45
2023-04-10T05:38:13.816Z,26.70
2023-04-10T05:40:40.318Z,25.20
2023-04-10T05:43:06.701Z,26.88
2023-04-10T05:45:33.155Z,26.90
2023-04-10T05:47:59.710Z,23.92
2023-04-10T05:50:26.635Z,23.88
2023-04-10T05:55:19.714Z,21.90
2023-04-10T05:57:46.927Z,21.55
2023-04-10T06:00:15.136Z,20.75
2023-04-10T06:02:42.338Z,20.02
2023-04-10T06:05:09.191Z,22.05
2023-04-10T06:07:35.657Z,21.58
2023-04-10T06:10:02.569Z,20.38
2023-04-10T06:12:28.990Z,22.35
2023-04-10T06:17:31.834Z,24.00
2023-04-10T06:20:01.104Z,23.10
2023-04-10T06:22:27.711Z,25.02
2023-04-10T06:24:54.271Z,23.58
2023-04-10T06:27:20.808Z,25.75
2023-04-10T06:29:47.423Z,25.35
2023-04-10T06:32:14.194Z,26.85
2023-04-10T06:34:40.752Z,25.45
2023-04-10T06:37:07.985Z,25.70
2023-04-10T06:39:35.110Z,26.00
2023-04-10T06:42:04.287Z,25.50
2023-04-10T06:44:32.029Z,24.45
2023-04-10T06:47:06.094Z,24.77
2023-04-10T06:49:33.160Z,24.38
2023-04-10T06:54:26.248Z,22.63
2023-04-10T06:56:52.863Z,24.25
2023-04-10T06:59:19.340Z,23.58
2023-04-10T07:01:45.847Z,23.55
2023-04-10T07:04:12.724Z,22.38
2023-04-10T07:06:39.637Z,23.13
2023-04-10T07:11:33.238Z,21.58
2023-04-10T07:13:59.966Z,22.33
2023-04-10T07:16:26.444Z,22.17
2023-04-10T07:18:53.420Z,22.63
2023-04-10T07:21:20.476Z,22.20
2023-04-10T07:23:47.386Z,21.52
2023-04-10T07:26:14.066Z,23.27
2023-04-10T07:28:40.680Z,21.17
2023-04-10T07:31:08.541Z,22.60
2023-04-10T07:33:36.374Z,22.15
2023-04-10T07:36:03.480Z,21.48
2023-04-10T07:40:57.770Z,21.15
2023-04-10T07:43:24.799Z,20.38
2023-04-10T07:51:24.886Z,21.33
2023-04-10T07:53:51.338Z,21.67
2023-04-10T07:56:19.157Z,22.55
2023-04-10T07:58:47.144Z,20.20
2023-04-10T08:01:14.569Z,20.17
2023-04-10T08:03:47.861Z,20.38
2023-04-10T08:06:14.539Z,18.85
2023-04-10T08:08:43.360Z,20.40
2023-04-10T08:11:29.776Z,18.95
2023-04-10T08:14:04.030Z,15.77
2023-04-10T08:16:32.102Z,14.90
2023-04-10T08:21:40.708Z,14.20
2023-04-10T08:26:33.711Z,14.45
2023-04-10T08:29:00.907Z,13.35
2023-04-10T08:31:28.851Z,12.48
2023-04-10T08:33:56.229Z,13.27
2023-04-10T08:36:23.053Z,15.15
2023-04-10T08:38:49.583Z,15.05
2023-04-10T08:41:20.853Z,15.00
2023-04-10T08:43:47.523Z,14.70
2023-04-10T08:46:14.986Z,13.65
2023-04-10T08:48:55.332Z,13.82
2023-04-10T08:54:06.974Z,13.57
2023-04-10T08:56:35.655Z,13.75
2023-04-10T08:59:03.939Z,13.02
2023-04-10T09:01:31.217Z,13.63
2023-04-10T09:03:58.422Z,12.00
2023-04-10T09:06:25.865Z,12.18
2023-04-10T09:11:18.692Z,11.57
2023-04-10T09:13:46.409Z,10.63
2023-04-10T09:16:13.681Z,11.30
2023-04-10T09:18:42.713Z,11.18
2023-04-10T09:21:11.313Z,10.88
2023-04-10T09:23:38.301Z,11.85
2023-04-10T09:28:58.374Z,11.13
2023-04-10T09:31:38.629Z,10.27
2023-04-10T09:34:09.379Z,10.70
2023-04-10T09:36:37.287Z,11.35
2023-04-10T09:39:07.733Z,10.52
2023-04-10T09:41:34.560Z,11.02
2023-04-10T09:44:09.017Z,10.98
2023-04-10T09:46:35.601Z,10.90
2023-04-10T09:49:05.183Z,10.15
2023-04-10T09:51:34.026Z,10.65
2023-04-10T09:54:01.570Z,11.27
2023-04-10T09:56:33.171Z,10.65
2023-04-10T09:59:01.534Z,11.05
2023-04-10T10:01:29.122Z,10.40
2023-04-10T10:03:57.389Z,10.40
2023-04-10T10:06:24.122Z,9.55
2023-04-10T10:08:51.165Z,10.00
2023-04-10T10:11:26.257Z,9.98
2023-04-10T10:13:57.158Z,10.15
2023-04-10T10:16:39.865Z,10.23
2023-04-10T10:19:10.945Z,9.93
2023-04-10T10:21:38.362Z,10.13
2023-04-10T10:24:08.445Z,9.45
2023-04-10T10:26:38.545Z,9.50
2023-04-10T10:29:14.121Z,9.93
2023-04-10T10:31:41.646Z,8.50
2023-04-10T10:34:09.669Z,10.40
2023-04-10T10:36:37.489Z,9.75
2023-04-10T10:39:19.512Z,10.93
2023-04-10T10:42:08.713Z,11.13
2023-04-10T10:44:57.546Z,10.30
2023-04-10T10:47:29.016Z,11.07
2023-04-10T10:50:00.518Z,10.57
2023-04-10T10:52:53.059Z,10.95
2023-04-10T10:55:25.443Z,10.02
2023-04-10T10:57:52.921Z,10.30
2023-04-10T11:00:21.574Z,10.32
2023-04-10T11:03:13.037Z,9.45
2023-04-10T11:05:59.375Z,8.63
2023-04-10T11:08:37.034Z,9.25
2023-04-10T11:11:08.742Z,9.65
2023-04-10T11:13:44.933Z,9.73
2023-04-10T11:16:11.937Z,10.05
2023-04-10T11:21:29.597Z,7.60
2023-04-10T11:23:56.138Z,9.95
2023-04-10T11:26:42.591Z,9.07
2023-04-10T11:29:18.087Z,8.50
2023-04-10T11:31:46.084Z,7.57
2023-04-10T11:34:12.843Z,8.30
2023-04-10T11:39:17.854Z,8.00
2023-04-10T11:41:49.699Z,7.50
2023-04-10T11:44:39.510Z,8.68
2023-04-10T11:47:06.753Z,9.10
2023-04-10T11:49:34.839Z,7.93
2023-04-10T11:52:01.458Z,7.20
2023-04-10T11:54:29.419Z,8.93
2023-04-10T11:57:07.476Z,8.38
2023-04-10T11:59:34.895Z,7.13
2023-04-10T12:02:09.448Z,6.65
2023-04-10T12:04:36.628Z,7.90
2023-04-10T12:07:03.402Z,7.60
2023-04-10T12:09:30.121Z,6.10
2023-04-10T12:14:45.571Z,7.45
2023-04-10T12:17:13.029Z,9.07
2023-04-10T12:19:42.230Z,8.90
2023-04-10T12:22:12.876Z,9.70
2023-04-10T12:24:46.124Z,9.52
2023-04-10T12:27:23.752Z,8.80
2023-04-10T12:29:53.291Z,8.57
2023-04-10T12:32:20.700Z,8.23
2023-04-10T12:34:59.352Z,7.10
2023-04-10T12:37:46.570Z,7.20
2023-04-10T12:40:13.645Z,7.72
2023-04-10T12:42:44.222Z,7.13
2023-04-10T12:45:13.992Z,6.82
2023-04-10T12:47:49.418Z,6.95
2023-04-10T12:50:17.514Z,7.53
2023-04-10T12:52:46.457Z,7.30
2023-04-10T12:55:21.341Z,7.25
2023-04-10T12:57:49.030Z,7.47
2023-04-10T13:00:17.580Z,6.82
2023-04-10T13:02:45.405Z,5.60
2023-04-10T13:05:12.027Z,6.20
2023-04-10T13:07:39.342Z,6.50
2023-04-10T13:10:07.679Z,7.03
2023-04-10T13:12:39.163Z,7.50
2023-04-10T13:15:07.899Z,6.95
2023-04-10T13:17:35.014Z,7.22
2023-04-10T13:20:11.415Z,7.00
2023-04-10T13:22:39.112Z,6.43
2023-04-10T13:25:06.038Z,7.28
2023-04-10T13:27:32.589Z,7.18
2023-04-10T13:32:33.131Z,6.80
2023-04-10T13:37:26.806Z,6.57
2023-04-10T13:39:53.600Z,6.88
2023-04-10T13:44:46.436Z,6.22
2023-04-10T13:47:12.944Z,5.90
2023-04-10T13:49:42.370Z,5.15
2023-04-10T13:52:08.863Z,5.82
2023-04-10T13:54:35.436Z,5.72
2023-04-10T13:57:02.918Z,6.05
2023-04-10T13:59:29.465Z,5.53
2023-04-10T14:01:56.148Z,5.13
2023-04-10T14:09:18.516Z,6.43
2023-04-10T14:11:44.912Z,5.93
2023-04-10T14:14:11.429Z,7.53
2023-04-10T14:16:37.998Z,7.22
2023-04-10T14:19:04.587Z,7.72
2023-04-10T14:21:31.873Z,6.22
2023-04-10T14:23:59.812Z,5.93
2023-04-10T14:26:26.517Z,5.88
2023-04-10T14:31:20.084Z,5.30
2023-04-10T14:33:46.689Z,5.30
2023-04-10T14:36:13.278Z,4.72
2023-04-10T14:38:40.295Z,5.28
2023-04-10T14:41:07.239Z,5.55
2023-04-10T14:43:33.963Z,5.20
2023-04-10T14:48:26.934Z,5.20
2023-04-10T14:55:48.261Z,4.78
2023-04-10T14:58:14.719Z,4.63
2023-04-10T15:00:43.724Z,4.22
2023-04-10T15:03:10.448Z,5.47
2023-04-10T15:12:57.341Z,5.47
2023-04-10T15:15:23.792Z,6.03
2023-04-10T15:17:50.306Z,5.30
2023-04-10T15:20:16.870Z,5.75
2023-04-10T15:22:45.552Z,5.65
2023-04-10T15:25:12.226Z,5.78
2023-04-10T15:27:39.371Z,5.00
2023-04-10T15:30:06.624Z,4.93
2023-04-10T15:32:33.150Z,5.80
2023-04-10T15:34:59.582Z,5.47
2023-04-10T15:37:26.085Z,5.32
2023-04-10T15:39:52.509Z,5.70
2023-04-10T15:42:18.944Z,5.63
2023-04-10T15:44:48.690Z,6.72
2023-04-10T15:47:15.591Z,5.40
2023-04-10T15:49:42.083Z,5.70
2023-04-10T15:52:08.552Z,6.20
2023-04-10T15:54:35.309Z,6.65
2023-04-10T15:59:29.202Z,6.88
2023-04-10T16:07:03.477Z,7.22
2023-04-10T16:09:30.519Z,6.30
2023-04-10T16:11:57.867Z,6.30
2023-04-10T16:14:24.350Z,6.20
2023-04-10T16:16:51.321Z,6.13
2023-04-10T16:19:17.772Z,7.15
2023-04-10T16:21:44.637Z,6.55
2023-04-10T16:26:37.607Z,6.47
2023-04-10T16:29:04.145Z,7.05
2023-04-10T16:31:31.215Z,7.38
2023-04-10T16:34:01.401Z,7.75
2023-04-10T16:36:27.994Z,6.90
2023-04-10T16:38:54.761Z,6.65
2023-04-10T16:43:47.974Z,6.93
2023-04-10T16:46:14.611Z,6.55
2023-04-10T16:48:42.231Z,7.68
2023-04-10T16:51:16.444Z,6.47
2023-04-10T16:53:43.788Z,6.72
2023-04-10T16:56:10.930Z,6.50
2023-04-10T16:58:38.128Z,7.95
2023-04-10T17:01:21.994Z,7.25
2023-04-10T17:03:49.179Z,6.55
2023-04-10T17:06:16.293Z,6.22
2023-04-10T17:08:44.013Z,6.80
2023-04-10T17:11:12.691Z,6.22
2023-04-10T17:13:40.441Z,5.90
2023-04-10T17:16:07.908Z,6.47
2023-04-10T17:18:34.408Z,7.50
2023-04-10T17:21:00.966Z,6.75
2023-04-10T17:23:27.410Z,6.00
2023-04-10T17:25:53.961Z,6.93
2023-04-10T17:28:20.518Z,6.82
2023-04-10T17:30:48.404Z,6.90
2023-04-10T17:33:14.946Z,6.65
2023-04-10T17:35:45.100Z,7.43
2023-04-10T17:38:11.729Z,7.55
2023-04-10T17:40:41.504Z,7.10
2023-04-10T17:43:08.765Z,7.05
2023-04-10T17:45:39.788Z,7.10
2023-04-10T17:48:07.024Z,7.60
2023-04-10T17:50:33.852Z,7.18
2023-04-10T17:53:00.952Z,7.03
2023-04-10T17:55:27.750Z,7.63
2023-04-10T17:57:54.296Z,7.78
2023-04-10T18:00:21.560Z,7.22
2023-04-10T18:02:48.996Z,7.65
2023-04-10T18:05:15.809Z,8.10
2023-04-10T18:07:42.588Z,8.18
2023-04-10T18:10:11.385Z,8.02
2023-04-10T18:12:38.096Z,8.32
2023-04-10T18:15:05.320Z,7.65
2023-04-10T18:17:32.081Z,8.10
2023-04-10T18:19:58.612Z,8.18
2023-04-10T18:22:25.105Z,7.95
2023-04-10T18:24:51.628Z,8.15
2023-04-10T18:27:18.371Z,7.60
2023-04-10T18:29:45.199Z,8.15
2023-04-10T18:32:11.967Z,8.80
2023-04-10T18:34:38.948Z,8.23
2023-04-10T18:42:10.795Z,9.50
2023-04-10T18:44:37.509Z,9.13
2023-04-10T18:47:04.994Z,9.00
2023-04-10T18:49:32.421Z,9.40
2023-04-10T18:51:58.965Z,9.75
2023-04-10T18:54:27.576Z,9.02
2023-04-10T18:56:54.184Z,9.13
2023-04-10T18:59:20.641Z,8.38
2023-04-10T19:01:47.368Z,8.85
2023-04-10T19:04:14.371Z,9.50
2023-04-10T19:09:09.610Z,9.35
2023-04-10T19:11:36.099Z,9.95
2023-04-10T19:14:02.678Z,9.05
2023-04-10T19:16:29.281Z,9.80
2023-04-10T19:18:56.416Z,8.80
2023-04-10T19:21:23.182Z,10.80
2023-04-10T19:23:49.633Z,10.40
2023-04-10T19:26:16.380Z,10.35
2023-04-10T19:28:42.848Z,10.80
2023-04-10T19:31:09.394Z,10.95
2023-04-10T19:33:36.191Z,10.50
2023-04-10T19:36:02.682Z,10.50
2023-04-10T19:38:32.969Z,10.75
2023-04-10T19:40:59.530Z,9.93
2023-04-10T19:43:26.004Z,10.63
2023-04-10T19:45:53.682Z,10.48
2023-04-10T19:48:21.259Z,10.32
2023-04-10T19:50:47.746Z,10.13
2023-04-10T19:53:15.800Z,9.77
2023-04-10T19:55:44.744Z,10.07
2023-04-10T19:58:30.092Z,9.57
2023-04-10T20:01:05.157Z,10.05
2023-04-10T20:03:32.825Z,10.10
2023-04-10T20:06:01.021Z,9.98
2023-04-10T20:08:27.525Z,9.15
2023-04-10T20:10:55.583Z,9.88
2023-04-10T20:13:23.192Z,8.88
2023-04-10T20:15:50.150Z,9.10
2023-04-10T20:20:44.579Z,9.70
2023-04-10T20:23:11.721Z,9.30
2023-04-10T20:25:38.644Z,9.48
2023-04-10T20:28:05.103Z,9.50
2023-04-10T20:30:31.688Z,9.20
2023-04-10T20:32:58.171Z,9.32
2023-04-10T20:35:26.123Z,9.93
2023-04-10T20:37:52.615Z,10.57
2023-04-10T20:40:19.377Z,10.73
2023-04-10T20:42:45.885Z,10.20
2023-04-10T20:45:12.382Z,10.10
2023-04-10T20:47:39.171Z,10.25
2023-04-10T20:50:06.257Z,10.60
2023-04-10T20:52:32.691Z,10.05
2023-04-10T20:54:59.396Z,10.00
2023-04-10T20:57:26.094Z,9.30
2023-04-10T20:59:52.788Z,9.90
2023-04-10T21:02:19.537Z,9.60
2023-04-10T21:04:46.410Z,9.50
2023-04-10T21:07:12.886Z,9.13
2023-04-10T21:09:39.474Z,9.70
2023-04-10T21:12:06.092Z,8.88
2023-04-10T21:14:32.894Z,8.98
2023-04-10T21:16:59.701Z,9.30
2023-04-10T21:19:26.351Z,9.52
2023-04-10T21:21:52.756Z,9.70
2023-04-10T21:24:19.212Z,8.05
2023-04-10T21:26:45.791Z,8.73
2023-04-10T21:29:12.499Z,8.45
2023-04-10T21:31:39.063Z,9.10
2023-04-10T21:34:05.867Z,8.30
2023-04-10T21:36:32.904Z,8.93
2023-04-10T21:43:56.682Z,7.90
2023-04-10T21:46:23.312Z,7.95
2023-04-10T21:48:49.839Z,7.55
2023-04-10T21:51:16.280Z,7.90
2023-04-10T21:53:42.922Z,6.80
2023-04-10T21:56:10.099Z,7.90
2023-04-10T21:58:38.085Z,7.53
2023-04-10T22:01:07.967Z,6.85
2023-04-10T22:03:34.614Z,7.15
2023-04-10T22:06:01.484Z,7.18
2023-04-10T22:08:27.945Z,8.07
2023-04-10T22:10:54.786Z,7.47
2023-04-10T22:13:30.435Z,7.55
2023-04-10T22:15:58.037Z,7.47
2023-04-10T22:20:51.222Z,7.68
2023-04-10T22:23:17.648Z,7.28
2023-04-10T22:25:44.150Z,8.38
2023-04-10T22:28:10.943Z,7.47
2023-04-10T22:30:37.488Z,8.20
2023-04-10T22:33:04.145Z,7.57
2023-04-10T22:35:30.831Z,8.20
2023-04-10T22:37:57.810Z,8.45
2023-04-10T22:40:25.519Z,8.00
2023-04-10T22:42:51.934Z,7.75
2023-04-10T22:45:18.522Z,7.75
2023-04-10T22:47:45.096Z,9.02
2023-04-10T22:50:11.707Z,7.95
2023-04-10T22:52:38.785Z,7.95
2023-04-10T22:55:06.990Z,8.50
2023-04-10T22:57:34.007Z,7.95
2023-04-10T23:02:27.850Z,7.78
2023-04-10T23:04:54.677Z,8.45
2023-04-10T23:07:21.230Z,8.02
2023-04-10T23:09:47.624Z,8.43
2023-04-10T23:12:14.036Z,7.57
2023-04-10T23:14:40.498Z,7.15
2023-04-10T23:17:06.954Z,8.10
2023-04-10T23:22:08.671Z,8.25
2023-04-10T23:24:35.136Z,7.95
2023-04-10T23:27:01.606Z,8.10
2023-04-10T23:29:28.129Z,8.13
2023-04-10T23:31:54.613Z,7.60
2023-04-10T23:34:21.203Z,7.20
2023-04-10T23:36:47.797Z,7.82
2023-04-10T23:39:14.324Z,7.97
2023-04-10T23:41:40.922Z,6.72
2023-04-10T23:44:07.490Z,7.63
2023-04-10T23:46:34.161Z,7.50
2023-04-10T23:49:00.666Z,7.18
2023-04-10T23:51:37.375Z,7.18
2023-04-10T23:54:03.977Z,7.75
2023-04-10T23:56:31.059Z,7.20
2023-04-10T23:58:57.572Z,6.85
